<?xml version="1.0" encoding="UTF-8" standalone="no" ?>
<gpx xmlns="http://www.topografix.com/GPX/1/1" xmlns:xsi="http://www.w3.org/2001/XMLSchema-instance" xsi:schemaLocation="http://www.topografix.com/GPX/1/1 http://www.topografix.com/GPX/1/1/gpx.xsd" version="1.1" creator="VisuGPX - https://www.visugpx.com">
  <metadata>
    <name>Val Louron - PTU MG pour enregistrement</name>
    <desc><![CDATA[A la demande de Yannick, mémoriser son vol en respectant une PTU MG;
gros vent ce jour là !!!]]></desc>
  </metadata>
  <trk>
    <name><![CDATA[Val Louron]]></name>
    <trkseg>
      <trkpt lat="42.79908" lon="0.38311">
        <ele>1630.1</ele>
        <time>2014-05-17T10:55:43Z</time>
      </trkpt>
      <trkpt lat="42.79908" lon="0.38311">
        <ele>1559.8</ele>
        <time>2014-05-17T10:55:47Z</time>
      </trkpt>
      <trkpt lat="42.79912" lon="0.38307">
        <ele>1627</ele>
        <time>2014-05-17T10:56:24Z</time>
      </trkpt>
      <trkpt lat="42.79908" lon="0.38318">
        <ele>1627.4</ele>
        <time>2014-05-17T10:58:58Z</time>
      </trkpt>
      <trkpt lat="42.79912" lon="0.38312">
        <ele>1627.4</ele>
        <time>2014-05-17T10:59:02Z</time>
      </trkpt>
      <trkpt lat="42.79908" lon="0.38321">
        <ele>1626</ele>
        <time>2014-05-17T10:59:26Z</time>
      </trkpt>
      <trkpt lat="42.79904" lon="0.38345">
        <ele>1626</ele>
        <time>2014-05-17T10:59:27Z</time>
      </trkpt>
      <trkpt lat="42.79894" lon="0.38364">
        <ele>1626</ele>
        <time>2014-05-17T10:59:29Z</time>
      </trkpt>
      <trkpt lat="42.79883" lon="0.38385">
        <ele>1625.2</ele>
        <time>2014-05-17T10:59:32Z</time>
      </trkpt>
      <trkpt lat="42.79875" lon="0.38408">
        <ele>1624.6</ele>
        <time>2014-05-17T10:59:34Z</time>
      </trkpt>
      <trkpt lat="42.79864" lon="0.38426">
        <ele>1624.1</ele>
        <time>2014-05-17T10:59:36Z</time>
      </trkpt>
      <trkpt lat="42.79858" lon="0.38451">
        <ele>1624</ele>
        <time>2014-05-17T10:59:38Z</time>
      </trkpt>
      <trkpt lat="42.79858" lon="0.38472">
        <ele>1623.3</ele>
        <time>2014-05-17T10:59:41Z</time>
      </trkpt>
      <trkpt lat="42.79857" lon="0.38482">
        <ele>1622</ele>
        <time>2014-05-17T10:59:45Z</time>
      </trkpt>
      <trkpt lat="42.79858" lon="0.38489">
        <ele>1622</ele>
        <time>2014-05-17T10:59:46Z</time>
      </trkpt>
      <trkpt lat="42.79869" lon="0.38494">
        <ele>1622</ele>
        <time>2014-05-17T10:59:50Z</time>
      </trkpt>
      <trkpt lat="42.79882" lon="0.38514">
        <ele>1622.9</ele>
        <time>2014-05-17T10:59:56Z</time>
      </trkpt>
      <trkpt lat="42.79885" lon="0.3854">
        <ele>1627.6</ele>
        <time>2014-05-17T11:00:02Z</time>
      </trkpt>
      <trkpt lat="42.79886" lon="0.3856">
        <ele>1628</ele>
        <time>2014-05-17T11:00:05Z</time>
      </trkpt>
      <trkpt lat="42.79902" lon="0.38569">
        <ele>1628</ele>
        <time>2014-05-17T11:00:08Z</time>
      </trkpt>
      <trkpt lat="42.79913" lon="0.38584">
        <ele>1627.2</ele>
        <time>2014-05-17T11:00:12Z</time>
      </trkpt>
      <trkpt lat="42.79911" lon="0.38608">
        <ele>1627</ele>
        <time>2014-05-17T11:00:15Z</time>
      </trkpt>
      <trkpt lat="42.79912" lon="0.38629">
        <ele>1625.8</ele>
        <time>2014-05-17T11:00:18Z</time>
      </trkpt>
      <trkpt lat="42.79924" lon="0.38643">
        <ele>1625.2</ele>
        <time>2014-05-17T11:00:21Z</time>
      </trkpt>
      <trkpt lat="42.79937" lon="0.38646">
        <ele>1620.4</ele>
        <time>2014-05-17T11:00:23Z</time>
      </trkpt>
      <trkpt lat="42.79947" lon="0.38647">
        <ele>1617.8</ele>
        <time>2014-05-17T11:00:25Z</time>
      </trkpt>
      <trkpt lat="42.79958" lon="0.38648">
        <ele>1616.5</ele>
        <time>2014-05-17T11:00:27Z</time>
      </trkpt>
      <trkpt lat="42.79974" lon="0.38649">
        <ele>1613.2</ele>
        <time>2014-05-17T11:00:30Z</time>
      </trkpt>
      <trkpt lat="42.79983" lon="0.38651">
        <ele>1610.5</ele>
        <time>2014-05-17T11:00:32Z</time>
      </trkpt>
      <trkpt lat="42.79997" lon="0.3866">
        <ele>1609.2</ele>
        <time>2014-05-17T11:00:35Z</time>
      </trkpt>
      <trkpt lat="42.80011" lon="0.38667">
        <ele>1608.3</ele>
        <time>2014-05-17T11:00:39Z</time>
      </trkpt>
      <trkpt lat="42.80021" lon="0.38672">
        <ele>1608.1</ele>
        <time>2014-05-17T11:00:41Z</time>
      </trkpt>
      <trkpt lat="42.80031" lon="0.38678">
        <ele>1606</ele>
        <time>2014-05-17T11:00:44Z</time>
      </trkpt>
      <trkpt lat="42.80039" lon="0.38684">
        <ele>1604.1</ele>
        <time>2014-05-17T11:00:47Z</time>
      </trkpt>
      <trkpt lat="42.80046" lon="0.38704">
        <ele>1604.1</ele>
        <time>2014-05-17T11:00:51Z</time>
      </trkpt>
      <trkpt lat="42.80053" lon="0.38723">
        <ele>1602.3</ele>
        <time>2014-05-17T11:00:55Z</time>
      </trkpt>
      <trkpt lat="42.80038" lon="0.3874">
        <ele>1602.1</ele>
        <time>2014-05-17T11:00:57Z</time>
      </trkpt>
      <trkpt lat="42.80023" lon="0.38749">
        <ele>1599.8</ele>
        <time>2014-05-17T11:00:59Z</time>
      </trkpt>
      <trkpt lat="42.80007" lon="0.38754">
        <ele>1591</ele>
        <time>2014-05-17T11:01:01Z</time>
      </trkpt>
      <trkpt lat="42.80002" lon="0.38757">
        <ele>1591</ele>
        <time>2014-05-17T11:01:02Z</time>
      </trkpt>
      <trkpt lat="42.79997" lon="0.38763">
        <ele>1591</ele>
        <time>2014-05-17T11:01:03Z</time>
      </trkpt>
      <trkpt lat="42.79993" lon="0.38769">
        <ele>1591</ele>
        <time>2014-05-17T11:01:04Z</time>
      </trkpt>
      <trkpt lat="42.7999" lon="0.38776">
        <ele>1591</ele>
        <time>2014-05-17T11:01:05Z</time>
      </trkpt>
      <trkpt lat="42.79993" lon="0.38794">
        <ele>1586.3</ele>
        <time>2014-05-17T11:01:08Z</time>
      </trkpt>
      <trkpt lat="42.79988" lon="0.38812">
        <ele>1583.1</ele>
        <time>2014-05-17T11:01:11Z</time>
      </trkpt>
      <trkpt lat="42.80003" lon="0.38827">
        <ele>1578.8</ele>
        <time>2014-05-17T11:01:14Z</time>
      </trkpt>
      <trkpt lat="42.80013" lon="0.38822">
        <ele>1575.6</ele>
        <time>2014-05-17T11:01:16Z</time>
      </trkpt>
      <trkpt lat="42.80022" lon="0.38817">
        <ele>1574.8</ele>
        <time>2014-05-17T11:01:18Z</time>
      </trkpt>
      <trkpt lat="42.80034" lon="0.38812">
        <ele>1572.3</ele>
        <time>2014-05-17T11:01:20Z</time>
      </trkpt>
      <trkpt lat="42.80044" lon="0.38808">
        <ele>1571.7</ele>
        <time>2014-05-17T11:01:22Z</time>
      </trkpt>
      <trkpt lat="42.80062" lon="0.38804">
        <ele>1571.1</ele>
        <time>2014-05-17T11:01:25Z</time>
      </trkpt>
      <trkpt lat="42.80077" lon="0.38799">
        <ele>1570.1</ele>
        <time>2014-05-17T11:01:28Z</time>
      </trkpt>
      <trkpt lat="42.801" lon="0.38786">
        <ele>1569</ele>
        <time>2014-05-17T11:01:34Z</time>
      </trkpt>
      <trkpt lat="42.8007" lon="0.38798">
        <ele>1569</ele>
        <time>2014-05-17T11:01:35Z</time>
      </trkpt>
      <trkpt lat="42.80053" lon="0.38803">
        <ele>1569</ele>
        <time>2014-05-17T11:01:36Z</time>
      </trkpt>
      <trkpt lat="42.80041" lon="0.38803">
        <ele>1569</ele>
        <time>2014-05-17T11:01:38Z</time>
      </trkpt>
      <trkpt lat="42.80027" lon="0.38793">
        <ele>1569.8</ele>
        <time>2014-05-17T11:01:40Z</time>
      </trkpt>
      <trkpt lat="42.80019" lon="0.38786">
        <ele>1570.4</ele>
        <time>2014-05-17T11:01:41Z</time>
      </trkpt>
      <trkpt lat="42.79996" lon="0.38769">
        <ele>1573.1</ele>
        <time>2014-05-17T11:01:43Z</time>
      </trkpt>
      <trkpt lat="42.79986" lon="0.38764">
        <ele>1575.5</ele>
        <time>2014-05-17T11:01:44Z</time>
      </trkpt>
      <trkpt lat="42.79967" lon="0.3876">
        <ele>1575.5</ele>
        <time>2014-05-17T11:01:45Z</time>
      </trkpt>
      <trkpt lat="42.79956" lon="0.38758">
        <ele>1579.3</ele>
        <time>2014-05-17T11:01:46Z</time>
      </trkpt>
      <trkpt lat="42.79944" lon="0.38756">
        <ele>1581.6</ele>
        <time>2014-05-17T11:01:47Z</time>
      </trkpt>
      <trkpt lat="42.79932" lon="0.38753">
        <ele>1583.4</ele>
        <time>2014-05-17T11:01:48Z</time>
      </trkpt>
      <trkpt lat="42.79919" lon="0.3875">
        <ele>1584.2</ele>
        <time>2014-05-17T11:01:50Z</time>
      </trkpt>
      <trkpt lat="42.79901" lon="0.38749">
        <ele>1584.9</ele>
        <time>2014-05-17T11:01:52Z</time>
      </trkpt>
      <trkpt lat="42.79857" lon="0.38818">
        <ele>1585</ele>
        <time>2014-05-17T11:01:55Z</time>
      </trkpt>
      <trkpt lat="42.79845" lon="0.38832">
        <ele>1585</ele>
        <time>2014-05-17T11:01:57Z</time>
      </trkpt>
      <trkpt lat="42.79857" lon="0.3885">
        <ele>1588</ele>
        <time>2014-05-17T11:02:02Z</time>
      </trkpt>
      <trkpt lat="42.79869" lon="0.38843">
        <ele>1588</ele>
        <time>2014-05-17T11:02:05Z</time>
      </trkpt>
      <trkpt lat="42.79881" lon="0.38835">
        <ele>1588</ele>
        <time>2014-05-17T11:02:07Z</time>
      </trkpt>
      <trkpt lat="42.79887" lon="0.38833">
        <ele>1588.9</ele>
        <time>2014-05-17T11:02:09Z</time>
      </trkpt>
      <trkpt lat="42.79894" lon="0.38834">
        <ele>1588.9</ele>
        <time>2014-05-17T11:02:11Z</time>
      </trkpt>
      <trkpt lat="42.79905" lon="0.38822">
        <ele>1589</ele>
        <time>2014-05-17T11:02:15Z</time>
      </trkpt>
      <trkpt lat="42.79924" lon="0.38811">
        <ele>1589.9</ele>
        <time>2014-05-17T11:02:19Z</time>
      </trkpt>
      <trkpt lat="42.79936" lon="0.38798">
        <ele>1590</ele>
        <time>2014-05-17T11:02:20Z</time>
      </trkpt>
      <trkpt lat="42.79952" lon="0.38785">
        <ele>1590</ele>
        <time>2014-05-17T11:02:23Z</time>
      </trkpt>
      <trkpt lat="42.79962" lon="0.38777">
        <ele>1590</ele>
        <time>2014-05-17T11:02:25Z</time>
      </trkpt>
      <trkpt lat="42.79971" lon="0.38772">
        <ele>1590</ele>
        <time>2014-05-17T11:02:27Z</time>
      </trkpt>
      <trkpt lat="42.79986" lon="0.38765">
        <ele>1590.5</ele>
        <time>2014-05-17T11:02:31Z</time>
      </trkpt>
      <trkpt lat="42.79999" lon="0.38762">
        <ele>1590.7</ele>
        <time>2014-05-17T11:02:35Z</time>
      </trkpt>
      <trkpt lat="42.80018" lon="0.38757">
        <ele>1591.5</ele>
        <time>2014-05-17T11:02:39Z</time>
      </trkpt>
      <trkpt lat="42.80031" lon="0.38758">
        <ele>1591.9</ele>
        <time>2014-05-17T11:02:42Z</time>
      </trkpt>
      <trkpt lat="42.80027" lon="0.38778">
        <ele>1592.9</ele>
        <time>2014-05-17T11:02:46Z</time>
      </trkpt>
      <trkpt lat="42.80008" lon="0.38784">
        <ele>1593</ele>
        <time>2014-05-17T11:02:48Z</time>
      </trkpt>
      <trkpt lat="42.79995" lon="0.38779">
        <ele>1593</ele>
        <time>2014-05-17T11:02:49Z</time>
      </trkpt>
      <trkpt lat="42.79979" lon="0.38778">
        <ele>1593</ele>
        <time>2014-05-17T11:02:51Z</time>
      </trkpt>
      <trkpt lat="42.79956" lon="0.38783">
        <ele>1593.9</ele>
        <time>2014-05-17T11:02:54Z</time>
      </trkpt>
      <trkpt lat="42.79946" lon="0.38794">
        <ele>1594.7</ele>
        <time>2014-05-17T11:02:56Z</time>
      </trkpt>
      <trkpt lat="42.79966" lon="0.388">
        <ele>1595.8</ele>
        <time>2014-05-17T11:02:59Z</time>
      </trkpt>
      <trkpt lat="42.79978" lon="0.38796">
        <ele>1597</ele>
        <time>2014-05-17T11:03:02Z</time>
      </trkpt>
      <trkpt lat="42.79996" lon="0.38797">
        <ele>1597.9</ele>
        <time>2014-05-17T11:03:05Z</time>
      </trkpt>
      <trkpt lat="42.80007" lon="0.38789">
        <ele>1598</ele>
        <time>2014-05-17T11:03:07Z</time>
      </trkpt>
      <trkpt lat="42.80024" lon="0.38777">
        <ele>1599.4</ele>
        <time>2014-05-17T11:03:10Z</time>
      </trkpt>
      <trkpt lat="42.80037" lon="0.38779">
        <ele>1599.9</ele>
        <time>2014-05-17T11:03:14Z</time>
      </trkpt>
      <trkpt lat="42.80026" lon="0.38799">
        <ele>1600.9</ele>
        <time>2014-05-17T11:03:18Z</time>
      </trkpt>
      <trkpt lat="42.80016" lon="0.38799">
        <ele>1601</ele>
        <time>2014-05-17T11:03:19Z</time>
      </trkpt>
      <trkpt lat="42.80006" lon="0.38798">
        <ele>1601</ele>
        <time>2014-05-17T11:03:20Z</time>
      </trkpt>
      <trkpt lat="42.79997" lon="0.38797">
        <ele>1601</ele>
        <time>2014-05-17T11:03:21Z</time>
      </trkpt>
      <trkpt lat="42.79985" lon="0.38793">
        <ele>1601</ele>
        <time>2014-05-17T11:03:22Z</time>
      </trkpt>
      <trkpt lat="42.79971" lon="0.38794">
        <ele>1601</ele>
        <time>2014-05-17T11:03:24Z</time>
      </trkpt>
      <trkpt lat="42.79961" lon="0.38796">
        <ele>1601</ele>
        <time>2014-05-17T11:03:25Z</time>
      </trkpt>
      <trkpt lat="42.79952" lon="0.38797">
        <ele>1600.5</ele>
        <time>2014-05-17T11:03:26Z</time>
      </trkpt>
      <trkpt lat="42.79942" lon="0.38797">
        <ele>1600.5</ele>
        <time>2014-05-17T11:03:27Z</time>
      </trkpt>
      <trkpt lat="42.79932" lon="0.38795">
        <ele>1599.4</ele>
        <time>2014-05-17T11:03:28Z</time>
      </trkpt>
      <trkpt lat="42.79921" lon="0.38795">
        <ele>1599.4</ele>
        <time>2014-05-17T11:03:29Z</time>
      </trkpt>
      <trkpt lat="42.79911" lon="0.38795">
        <ele>1599.1</ele>
        <time>2014-05-17T11:03:30Z</time>
      </trkpt>
      <trkpt lat="42.79901" lon="0.38794">
        <ele>1599</ele>
        <time>2014-05-17T11:03:31Z</time>
      </trkpt>
      <trkpt lat="42.79891" lon="0.38793">
        <ele>1599</ele>
        <time>2014-05-17T11:03:32Z</time>
      </trkpt>
      <trkpt lat="42.79876" lon="0.38804">
        <ele>1599</ele>
        <time>2014-05-17T11:03:34Z</time>
      </trkpt>
      <trkpt lat="42.79863" lon="0.38812">
        <ele>1599</ele>
        <time>2014-05-17T11:03:36Z</time>
      </trkpt>
      <trkpt lat="42.7985" lon="0.38811">
        <ele>1599</ele>
        <time>2014-05-17T11:03:37Z</time>
      </trkpt>
      <trkpt lat="42.7984" lon="0.38812">
        <ele>1599</ele>
        <time>2014-05-17T11:03:38Z</time>
      </trkpt>
      <trkpt lat="42.79831" lon="0.38815">
        <ele>1599.5</ele>
        <time>2014-05-17T11:03:39Z</time>
      </trkpt>
      <trkpt lat="42.79822" lon="0.38816">
        <ele>1599.9</ele>
        <time>2014-05-17T11:03:40Z</time>
      </trkpt>
      <trkpt lat="42.79812" lon="0.38817">
        <ele>1599.9</ele>
        <time>2014-05-17T11:03:41Z</time>
      </trkpt>
      <trkpt lat="42.79801" lon="0.38815">
        <ele>1600</ele>
        <time>2014-05-17T11:03:42Z</time>
      </trkpt>
      <trkpt lat="42.7979" lon="0.38814">
        <ele>1600</ele>
        <time>2014-05-17T11:03:43Z</time>
      </trkpt>
      <trkpt lat="42.79779" lon="0.38812">
        <ele>1600</ele>
        <time>2014-05-17T11:03:44Z</time>
      </trkpt>
      <trkpt lat="42.79766" lon="0.38811">
        <ele>1600</ele>
        <time>2014-05-17T11:03:45Z</time>
      </trkpt>
      <trkpt lat="42.79755" lon="0.3881">
        <ele>1600</ele>
        <time>2014-05-17T11:03:46Z</time>
      </trkpt>
      <trkpt lat="42.79746" lon="0.38804">
        <ele>1600</ele>
        <time>2014-05-17T11:03:47Z</time>
      </trkpt>
      <trkpt lat="42.79737" lon="0.38799">
        <ele>1600</ele>
        <time>2014-05-17T11:03:48Z</time>
      </trkpt>
      <trkpt lat="42.79723" lon="0.38795">
        <ele>1600</ele>
        <time>2014-05-17T11:03:49Z</time>
      </trkpt>
      <trkpt lat="42.7971" lon="0.38794">
        <ele>1600</ele>
        <time>2014-05-17T11:03:50Z</time>
      </trkpt>
      <trkpt lat="42.79685" lon="0.38779">
        <ele>1599.2</ele>
        <time>2014-05-17T11:03:53Z</time>
      </trkpt>
      <trkpt lat="42.79675" lon="0.38777">
        <ele>1596.6</ele>
        <time>2014-05-17T11:03:54Z</time>
      </trkpt>
      <trkpt lat="42.79658" lon="0.38784">
        <ele>1594.3</ele>
        <time>2014-05-17T11:03:56Z</time>
      </trkpt>
      <trkpt lat="42.79644" lon="0.38798">
        <ele>1593.6</ele>
        <time>2014-05-17T11:03:58Z</time>
      </trkpt>
      <trkpt lat="42.79655" lon="0.38813">
        <ele>1592.4</ele>
        <time>2014-05-17T11:04:01Z</time>
      </trkpt>
      <trkpt lat="42.79671" lon="0.38816">
        <ele>1592</ele>
        <time>2014-05-17T11:04:04Z</time>
      </trkpt>
      <trkpt lat="42.79683" lon="0.38813">
        <ele>1591.3</ele>
        <time>2014-05-17T11:04:06Z</time>
      </trkpt>
      <trkpt lat="42.79695" lon="0.38809">
        <ele>1590.1</ele>
        <time>2014-05-17T11:04:08Z</time>
      </trkpt>
      <trkpt lat="42.7971" lon="0.38805">
        <ele>1590.1</ele>
        <time>2014-05-17T11:04:11Z</time>
      </trkpt>
      <trkpt lat="42.79731" lon="0.3881">
        <ele>1589.5</ele>
        <time>2014-05-17T11:04:15Z</time>
      </trkpt>
      <trkpt lat="42.79741" lon="0.38809">
        <ele>1589</ele>
        <time>2014-05-17T11:04:17Z</time>
      </trkpt>
      <trkpt lat="42.79753" lon="0.3881">
        <ele>1589</ele>
        <time>2014-05-17T11:04:19Z</time>
      </trkpt>
      <trkpt lat="42.79767" lon="0.38808">
        <ele>1589</ele>
        <time>2014-05-17T11:04:21Z</time>
      </trkpt>
      <trkpt lat="42.79788" lon="0.38806">
        <ele>1588.1</ele>
        <time>2014-05-17T11:04:24Z</time>
      </trkpt>
      <trkpt lat="42.79794" lon="0.38803">
        <ele>1585.2</ele>
        <time>2014-05-17T11:04:25Z</time>
      </trkpt>
      <trkpt lat="42.798" lon="0.38801">
        <ele>1585.2</ele>
        <time>2014-05-17T11:04:26Z</time>
      </trkpt>
      <trkpt lat="42.79806" lon="0.388">
        <ele>1585.2</ele>
        <time>2014-05-17T11:04:27Z</time>
      </trkpt>
      <trkpt lat="42.79813" lon="0.38802">
        <ele>1585.2</ele>
        <time>2014-05-17T11:04:29Z</time>
      </trkpt>
      <trkpt lat="42.79823" lon="0.38806">
        <ele>1585.1</ele>
        <time>2014-05-17T11:04:31Z</time>
      </trkpt>
      <trkpt lat="42.79836" lon="0.38811">
        <ele>1584.1</ele>
        <time>2014-05-17T11:04:33Z</time>
      </trkpt>
      <trkpt lat="42.79842" lon="0.38812">
        <ele>1580.1</ele>
        <time>2014-05-17T11:04:34Z</time>
      </trkpt>
      <trkpt lat="42.79848" lon="0.38814">
        <ele>1580.1</ele>
        <time>2014-05-17T11:04:35Z</time>
      </trkpt>
      <trkpt lat="42.79849" lon="0.3882">
        <ele>1580.1</ele>
        <time>2014-05-17T11:04:36Z</time>
      </trkpt>
      <trkpt lat="42.79853" lon="0.38825">
        <ele>1580.1</ele>
        <time>2014-05-17T11:04:37Z</time>
      </trkpt>
      <trkpt lat="42.79867" lon="0.38835">
        <ele>1569.8</ele>
        <time>2014-05-17T11:04:42Z</time>
      </trkpt>
      <trkpt lat="42.7988" lon="0.38844">
        <ele>1566.5</ele>
        <time>2014-05-17T11:04:45Z</time>
      </trkpt>
      <trkpt lat="42.79896" lon="0.38844">
        <ele>1564.3</ele>
        <time>2014-05-17T11:04:48Z</time>
      </trkpt>
      <trkpt lat="42.79912" lon="0.38852">
        <ele>1563.3</ele>
        <time>2014-05-17T11:04:51Z</time>
      </trkpt>
      <trkpt lat="42.79923" lon="0.38854">
        <ele>1560.6</ele>
        <time>2014-05-17T11:04:53Z</time>
      </trkpt>
      <trkpt lat="42.79928" lon="0.38858">
        <ele>1560.6</ele>
        <time>2014-05-17T11:04:54Z</time>
      </trkpt>
      <trkpt lat="42.79931" lon="0.38863">
        <ele>1560.6</ele>
        <time>2014-05-17T11:04:55Z</time>
      </trkpt>
      <trkpt lat="42.79934" lon="0.3887">
        <ele>1560.6</ele>
        <time>2014-05-17T11:04:56Z</time>
      </trkpt>
      <trkpt lat="42.79938" lon="0.38891">
        <ele>1553.5</ele>
        <time>2014-05-17T11:05:00Z</time>
      </trkpt>
      <trkpt lat="42.79943" lon="0.38913">
        <ele>1552.8</ele>
        <time>2014-05-17T11:05:02Z</time>
      </trkpt>
      <trkpt lat="42.79948" lon="0.38931">
        <ele>1543.7</ele>
        <time>2014-05-17T11:05:06Z</time>
      </trkpt>
      <trkpt lat="42.79952" lon="0.3895">
        <ele>1542.9</ele>
        <time>2014-05-17T11:05:08Z</time>
      </trkpt>
      <trkpt lat="42.79969" lon="0.38954">
        <ele>1541.6</ele>
        <time>2014-05-17T11:05:11Z</time>
      </trkpt>
      <trkpt lat="42.79983" lon="0.38964">
        <ele>1539.7</ele>
        <time>2014-05-17T11:05:14Z</time>
      </trkpt>
      <trkpt lat="42.79996" lon="0.3897">
        <ele>1539</ele>
        <time>2014-05-17T11:05:17Z</time>
      </trkpt>
      <trkpt lat="42.80005" lon="0.38974">
        <ele>1535.9</ele>
        <time>2014-05-17T11:05:19Z</time>
      </trkpt>
      <trkpt lat="42.80009" lon="0.38977">
        <ele>1535.9</ele>
        <time>2014-05-17T11:05:20Z</time>
      </trkpt>
      <trkpt lat="42.80013" lon="0.38982">
        <ele>1535.9</ele>
        <time>2014-05-17T11:05:21Z</time>
      </trkpt>
      <trkpt lat="42.80018" lon="0.38985">
        <ele>1535.9</ele>
        <time>2014-05-17T11:05:22Z</time>
      </trkpt>
      <trkpt lat="42.80034" lon="0.38989">
        <ele>1531</ele>
        <time>2014-05-17T11:05:26Z</time>
      </trkpt>
      <trkpt lat="42.80051" lon="0.38994">
        <ele>1527</ele>
        <time>2014-05-17T11:05:30Z</time>
      </trkpt>
      <trkpt lat="42.8006" lon="0.39001">
        <ele>1523.6</ele>
        <time>2014-05-17T11:05:32Z</time>
      </trkpt>
      <trkpt lat="42.80068" lon="0.39011">
        <ele>1523.6</ele>
        <time>2014-05-17T11:05:34Z</time>
      </trkpt>
      <trkpt lat="42.80083" lon="0.39031">
        <ele>1521.6</ele>
        <time>2014-05-17T11:05:37Z</time>
      </trkpt>
      <trkpt lat="42.80094" lon="0.39051">
        <ele>1518.1</ele>
        <time>2014-05-17T11:05:41Z</time>
      </trkpt>
      <trkpt lat="42.80104" lon="0.39065">
        <ele>1514.5</ele>
        <time>2014-05-17T11:05:44Z</time>
      </trkpt>
      <trkpt lat="42.80111" lon="0.39084">
        <ele>1511.6</ele>
        <time>2014-05-17T11:05:47Z</time>
      </trkpt>
      <trkpt lat="42.80118" lon="0.39104">
        <ele>1505.4</ele>
        <time>2014-05-17T11:05:50Z</time>
      </trkpt>
      <trkpt lat="42.80125" lon="0.39124">
        <ele>1499.2</ele>
        <time>2014-05-17T11:05:53Z</time>
      </trkpt>
      <trkpt lat="42.8013" lon="0.39145">
        <ele>1494.8</ele>
        <time>2014-05-17T11:05:56Z</time>
      </trkpt>
      <trkpt lat="42.80131" lon="0.39168">
        <ele>1489.7</ele>
        <time>2014-05-17T11:05:59Z</time>
      </trkpt>
      <trkpt lat="42.80136" lon="0.39195">
        <ele>1485.3</ele>
        <time>2014-05-17T11:06:02Z</time>
      </trkpt>
      <trkpt lat="42.80142" lon="0.39216">
        <ele>1481.5</ele>
        <time>2014-05-17T11:06:05Z</time>
      </trkpt>
      <trkpt lat="42.80156" lon="0.39215">
        <ele>1474.2</ele>
        <time>2014-05-17T11:06:08Z</time>
      </trkpt>
      <trkpt lat="42.80167" lon="0.39218">
        <ele>1471</ele>
        <time>2014-05-17T11:06:10Z</time>
      </trkpt>
      <trkpt lat="42.80178" lon="0.39221">
        <ele>1469.5</ele>
        <time>2014-05-17T11:06:12Z</time>
      </trkpt>
      <trkpt lat="42.80186" lon="0.39236">
        <ele>1468.6</ele>
        <time>2014-05-17T11:06:15Z</time>
      </trkpt>
      <trkpt lat="42.80184" lon="0.3926">
        <ele>1466.3</ele>
        <time>2014-05-17T11:06:18Z</time>
      </trkpt>
      <trkpt lat="42.80174" lon="0.39278">
        <ele>1465.7</ele>
        <time>2014-05-17T11:06:20Z</time>
      </trkpt>
      <trkpt lat="42.8017" lon="0.393">
        <ele>1465</ele>
        <time>2014-05-17T11:06:23Z</time>
      </trkpt>
      <trkpt lat="42.80172" lon="0.3932">
        <ele>1465</ele>
        <time>2014-05-17T11:06:25Z</time>
      </trkpt>
      <trkpt lat="42.80174" lon="0.39344">
        <ele>1461.3</ele>
        <time>2014-05-17T11:06:29Z</time>
      </trkpt>
      <trkpt lat="42.80162" lon="0.39367">
        <ele>1457.9</ele>
        <time>2014-05-17T11:06:32Z</time>
      </trkpt>
      <trkpt lat="42.80146" lon="0.39385">
        <ele>1455.5</ele>
        <time>2014-05-17T11:06:35Z</time>
      </trkpt>
      <trkpt lat="42.8013" lon="0.39401">
        <ele>1453.6</ele>
        <time>2014-05-17T11:06:37Z</time>
      </trkpt>
      <trkpt lat="42.80113" lon="0.39413">
        <ele>1450.9</ele>
        <time>2014-05-17T11:06:39Z</time>
      </trkpt>
      <trkpt lat="42.80098" lon="0.39425">
        <ele>1449.5</ele>
        <time>2014-05-17T11:06:41Z</time>
      </trkpt>
      <trkpt lat="42.80084" lon="0.39434">
        <ele>1449.1</ele>
        <time>2014-05-17T11:06:43Z</time>
      </trkpt>
      <trkpt lat="42.8007" lon="0.39451">
        <ele>1446</ele>
        <time>2014-05-17T11:06:45Z</time>
      </trkpt>
      <trkpt lat="42.80066" lon="0.39474">
        <ele>1445.3</ele>
        <time>2014-05-17T11:06:48Z</time>
      </trkpt>
      <trkpt lat="42.80081" lon="0.3948">
        <ele>1445</ele>
        <time>2014-05-17T11:06:52Z</time>
      </trkpt>
      <trkpt lat="42.80093" lon="0.39478">
        <ele>1445</ele>
        <time>2014-05-17T11:06:55Z</time>
      </trkpt>
      <trkpt lat="42.80104" lon="0.39474">
        <ele>1445</ele>
        <time>2014-05-17T11:06:58Z</time>
      </trkpt>
      <trkpt lat="42.80113" lon="0.39467">
        <ele>1445</ele>
        <time>2014-05-17T11:07:00Z</time>
      </trkpt>
      <trkpt lat="42.80127" lon="0.39456">
        <ele>1450.9</ele>
        <time>2014-05-17T11:07:05Z</time>
      </trkpt>
      <trkpt lat="42.80126" lon="0.39449">
        <ele>1453.8</ele>
        <time>2014-05-17T11:07:06Z</time>
      </trkpt>
      <trkpt lat="42.8013" lon="0.39446">
        <ele>1453.8</ele>
        <time>2014-05-17T11:07:07Z</time>
      </trkpt>
      <trkpt lat="42.80135" lon="0.39449">
        <ele>1453.8</ele>
        <time>2014-05-17T11:07:08Z</time>
      </trkpt>
      <trkpt lat="42.80143" lon="0.39451">
        <ele>1453.8</ele>
        <time>2014-05-17T11:07:10Z</time>
      </trkpt>
      <trkpt lat="42.80156" lon="0.3945">
        <ele>1463.4</ele>
        <time>2014-05-17T11:07:13Z</time>
      </trkpt>
      <trkpt lat="42.80156" lon="0.39475">
        <ele>1465.7</ele>
        <time>2014-05-17T11:07:17Z</time>
      </trkpt>
      <trkpt lat="42.80136" lon="0.39489">
        <ele>1465.3</ele>
        <time>2014-05-17T11:07:19Z</time>
      </trkpt>
      <trkpt lat="42.80126" lon="0.39498">
        <ele>1465.2</ele>
        <time>2014-05-17T11:07:20Z</time>
      </trkpt>
      <trkpt lat="42.80113" lon="0.39494">
        <ele>1465.1</ele>
        <time>2014-05-17T11:07:21Z</time>
      </trkpt>
      <trkpt lat="42.80101" lon="0.39494">
        <ele>1465</ele>
        <time>2014-05-17T11:07:22Z</time>
      </trkpt>
      <trkpt lat="42.80089" lon="0.39488">
        <ele>1465</ele>
        <time>2014-05-17T11:07:23Z</time>
      </trkpt>
      <trkpt lat="42.80077" lon="0.39483">
        <ele>1463.8</ele>
        <time>2014-05-17T11:07:24Z</time>
      </trkpt>
      <trkpt lat="42.80066" lon="0.3948">
        <ele>1462.9</ele>
        <time>2014-05-17T11:07:25Z</time>
      </trkpt>
      <trkpt lat="42.80052" lon="0.39476">
        <ele>1462.4</ele>
        <time>2014-05-17T11:07:26Z</time>
      </trkpt>
      <trkpt lat="42.8004" lon="0.39472">
        <ele>1462.4</ele>
        <time>2014-05-17T11:07:27Z</time>
      </trkpt>
      <trkpt lat="42.80027" lon="0.39469">
        <ele>1461.1</ele>
        <time>2014-05-17T11:07:28Z</time>
      </trkpt>
      <trkpt lat="42.80014" lon="0.39463">
        <ele>1461.1</ele>
        <time>2014-05-17T11:07:29Z</time>
      </trkpt>
      <trkpt lat="42.80001" lon="0.39458">
        <ele>1460.6</ele>
        <time>2014-05-17T11:07:30Z</time>
      </trkpt>
      <trkpt lat="42.79989" lon="0.3945">
        <ele>1460.6</ele>
        <time>2014-05-17T11:07:31Z</time>
      </trkpt>
      <trkpt lat="42.79977" lon="0.39444">
        <ele>1459.3</ele>
        <time>2014-05-17T11:07:32Z</time>
      </trkpt>
      <trkpt lat="42.79966" lon="0.39449">
        <ele>1457.6</ele>
        <time>2014-05-17T11:07:33Z</time>
      </trkpt>
      <trkpt lat="42.79949" lon="0.39469">
        <ele>1455.6</ele>
        <time>2014-05-17T11:07:35Z</time>
      </trkpt>
      <trkpt lat="42.79938" lon="0.39486">
        <ele>1455.1</ele>
        <time>2014-05-17T11:07:38Z</time>
      </trkpt>
      <trkpt lat="42.79952" lon="0.39489">
        <ele>1454.1</ele>
        <time>2014-05-17T11:07:43Z</time>
      </trkpt>
      <trkpt lat="42.79961" lon="0.39491">
        <ele>1453.1</ele>
        <time>2014-05-17T11:07:46Z</time>
      </trkpt>
      <trkpt lat="42.79965" lon="0.39495">
        <ele>1449.1</ele>
        <time>2014-05-17T11:07:48Z</time>
      </trkpt>
      <trkpt lat="42.7997" lon="0.39499">
        <ele>1449.1</ele>
        <time>2014-05-17T11:07:50Z</time>
      </trkpt>
      <trkpt lat="42.79975" lon="0.39501">
        <ele>1449.1</ele>
        <time>2014-05-17T11:07:52Z</time>
      </trkpt>
      <trkpt lat="42.79989" lon="0.39494">
        <ele>1447.3</ele>
        <time>2014-05-17T11:07:55Z</time>
      </trkpt>
      <trkpt lat="42.80001" lon="0.39482">
        <ele>1445.3</ele>
        <time>2014-05-17T11:07:58Z</time>
      </trkpt>
      <trkpt lat="42.80021" lon="0.39475">
        <ele>1441.7</ele>
        <time>2014-05-17T11:08:02Z</time>
      </trkpt>
      <trkpt lat="42.80028" lon="0.39469">
        <ele>1441</ele>
        <time>2014-05-17T11:08:05Z</time>
      </trkpt>
      <trkpt lat="42.80041" lon="0.39467">
        <ele>1441</ele>
        <time>2014-05-17T11:08:07Z</time>
      </trkpt>
      <trkpt lat="42.80055" lon="0.39465">
        <ele>1440.5</ele>
        <time>2014-05-17T11:08:10Z</time>
      </trkpt>
      <trkpt lat="42.80066" lon="0.39463">
        <ele>1440.6</ele>
        <time>2014-05-17T11:08:13Z</time>
      </trkpt>
      <trkpt lat="42.80074" lon="0.39451">
        <ele>1439.3</ele>
        <time>2014-05-17T11:08:15Z</time>
      </trkpt>
      <trkpt lat="42.80084" lon="0.3944">
        <ele>1437.3</ele>
        <time>2014-05-17T11:08:17Z</time>
      </trkpt>
      <trkpt lat="42.80092" lon="0.39435">
        <ele>1437.1</ele>
        <time>2014-05-17T11:08:19Z</time>
      </trkpt>
      <trkpt lat="42.80104" lon="0.39431">
        <ele>1437</ele>
        <time>2014-05-17T11:08:21Z</time>
      </trkpt>
      <trkpt lat="42.80119" lon="0.39421">
        <ele>1437</ele>
        <time>2014-05-17T11:08:25Z</time>
      </trkpt>
      <trkpt lat="42.80131" lon="0.39428">
        <ele>1438.3</ele>
        <time>2014-05-17T11:08:27Z</time>
      </trkpt>
      <trkpt lat="42.80143" lon="0.39428">
        <ele>1439</ele>
        <time>2014-05-17T11:08:31Z</time>
      </trkpt>
      <trkpt lat="42.80155" lon="0.39429">
        <ele>1439</ele>
        <time>2014-05-17T11:08:34Z</time>
      </trkpt>
      <trkpt lat="42.80165" lon="0.39424">
        <ele>1439</ele>
        <time>2014-05-17T11:08:38Z</time>
      </trkpt>
      <trkpt lat="42.80179" lon="0.39422">
        <ele>1437.5</ele>
        <time>2014-05-17T11:08:39Z</time>
      </trkpt>
      <trkpt lat="42.80193" lon="0.39405">
        <ele>1435.4</ele>
        <time>2014-05-17T11:08:44Z</time>
      </trkpt>
      <trkpt lat="42.80201" lon="0.39421">
        <ele>1435</ele>
        <time>2014-05-17T11:08:50Z</time>
      </trkpt>
      <trkpt lat="42.80187" lon="0.39433">
        <ele>1435</ele>
        <time>2014-05-17T11:08:52Z</time>
      </trkpt>
      <trkpt lat="42.80175" lon="0.39443">
        <ele>1435</ele>
        <time>2014-05-17T11:08:53Z</time>
      </trkpt>
      <trkpt lat="42.80154" lon="0.39451">
        <ele>1434.1</ele>
        <time>2014-05-17T11:08:55Z</time>
      </trkpt>
      <trkpt lat="42.80142" lon="0.39456">
        <ele>1434.1</ele>
        <time>2014-05-17T11:08:56Z</time>
      </trkpt>
      <trkpt lat="42.80133" lon="0.39461">
        <ele>1434.1</ele>
        <time>2014-05-17T11:08:57Z</time>
      </trkpt>
      <trkpt lat="42.80123" lon="0.39467">
        <ele>1434</ele>
        <time>2014-05-17T11:08:58Z</time>
      </trkpt>
      <trkpt lat="42.80113" lon="0.39471">
        <ele>1434</ele>
        <time>2014-05-17T11:08:59Z</time>
      </trkpt>
      <trkpt lat="42.80102" lon="0.39475">
        <ele>1433.5</ele>
        <time>2014-05-17T11:09:00Z</time>
      </trkpt>
      <trkpt lat="42.8009" lon="0.39482">
        <ele>1433.5</ele>
        <time>2014-05-17T11:09:01Z</time>
      </trkpt>
      <trkpt lat="42.80081" lon="0.39487">
        <ele>1430.9</ele>
        <time>2014-05-17T11:09:02Z</time>
      </trkpt>
      <trkpt lat="42.80072" lon="0.39493">
        <ele>1430.4</ele>
        <time>2014-05-17T11:09:03Z</time>
      </trkpt>
      <trkpt lat="42.80061" lon="0.39501">
        <ele>1429.2</ele>
        <time>2014-05-17T11:09:04Z</time>
      </trkpt>
      <trkpt lat="42.8005" lon="0.39509">
        <ele>1429.2</ele>
        <time>2014-05-17T11:09:05Z</time>
      </trkpt>
      <trkpt lat="42.80039" lon="0.39512">
        <ele>1428.6</ele>
        <time>2014-05-17T11:09:06Z</time>
      </trkpt>
      <trkpt lat="42.80027" lon="0.39514">
        <ele>1428.3</ele>
        <time>2014-05-17T11:09:07Z</time>
      </trkpt>
      <trkpt lat="42.80016" lon="0.39517">
        <ele>1427.7</ele>
        <time>2014-05-17T11:09:08Z</time>
      </trkpt>
      <trkpt lat="42.80006" lon="0.3952">
        <ele>1426.8</ele>
        <time>2014-05-17T11:09:09Z</time>
      </trkpt>
      <trkpt lat="42.79996" lon="0.39523">
        <ele>1426.4</ele>
        <time>2014-05-17T11:09:10Z</time>
      </trkpt>
      <trkpt lat="42.79979" lon="0.39534">
        <ele>1424.6</ele>
        <time>2014-05-17T11:09:13Z</time>
      </trkpt>
      <trkpt lat="42.79991" lon="0.39554">
        <ele>1423.8</ele>
        <time>2014-05-17T11:09:15Z</time>
      </trkpt>
      <trkpt lat="42.80002" lon="0.39566">
        <ele>1415.9</ele>
        <time>2014-05-17T11:09:19Z</time>
      </trkpt>
      <trkpt lat="42.80014" lon="0.39574">
        <ele>1410.1</ele>
        <time>2014-05-17T11:09:22Z</time>
      </trkpt>
      <trkpt lat="42.80024" lon="0.39575">
        <ele>1407.8</ele>
        <time>2014-05-17T11:09:25Z</time>
      </trkpt>
      <trkpt lat="42.80036" lon="0.39574">
        <ele>1406.2</ele>
        <time>2014-05-17T11:09:28Z</time>
      </trkpt>
      <trkpt lat="42.80047" lon="0.39587">
        <ele>1398.7</ele>
        <time>2014-05-17T11:09:33Z</time>
      </trkpt>
      <trkpt lat="42.80049" lon="0.39611">
        <ele>1396.2</ele>
        <time>2014-05-17T11:09:37Z</time>
      </trkpt>
      <trkpt lat="42.80053" lon="0.39631">
        <ele>1395.5</ele>
        <time>2014-05-17T11:09:39Z</time>
      </trkpt>
      <trkpt lat="42.80051" lon="0.39651">
        <ele>1388.1</ele>
        <time>2014-05-17T11:09:42Z</time>
      </trkpt>
      <trkpt lat="42.80064" lon="0.39663">
        <ele>1376.5</ele>
        <time>2014-05-17T11:09:49Z</time>
      </trkpt>
      <trkpt lat="42.80074" lon="0.39666">
        <ele>1374.2</ele>
        <time>2014-05-17T11:09:52Z</time>
      </trkpt>
      <trkpt lat="42.80085" lon="0.39679">
        <ele>1371.3</ele>
        <time>2014-05-17T11:09:55Z</time>
      </trkpt>
      <trkpt lat="42.80101" lon="0.39684">
        <ele>1366.3</ele>
        <time>2014-05-17T11:10:00Z</time>
      </trkpt>
      <trkpt lat="42.80108" lon="0.39694">
        <ele>1361.2</ele>
        <time>2014-05-17T11:10:06Z</time>
      </trkpt>
      <trkpt lat="42.80131" lon="0.39676">
        <ele>1358.6</ele>
        <time>2014-05-17T11:10:12Z</time>
      </trkpt>
      <trkpt lat="42.80142" lon="0.39673">
        <ele>1358</ele>
        <time>2014-05-17T11:10:17Z</time>
      </trkpt>
      <trkpt lat="42.80154" lon="0.39659">
        <ele>1358</ele>
        <time>2014-05-17T11:10:21Z</time>
      </trkpt>
      <trkpt lat="42.8016" lon="0.3967">
        <ele>1361.9</ele>
        <time>2014-05-17T11:10:24Z</time>
      </trkpt>
      <trkpt lat="42.80153" lon="0.39692">
        <ele>1367</ele>
        <time>2014-05-17T11:10:28Z</time>
      </trkpt>
      <trkpt lat="42.80146" lon="0.39702">
        <ele>1367</ele>
        <time>2014-05-17T11:10:29Z</time>
      </trkpt>
      <trkpt lat="42.80127" lon="0.39711">
        <ele>1368.4</ele>
        <time>2014-05-17T11:10:31Z</time>
      </trkpt>
      <trkpt lat="42.80114" lon="0.39711">
        <ele>1368.7</ele>
        <time>2014-05-17T11:10:32Z</time>
      </trkpt>
      <trkpt lat="42.80102" lon="0.39713">
        <ele>1368.8</ele>
        <time>2014-05-17T11:10:33Z</time>
      </trkpt>
      <trkpt lat="42.8009" lon="0.39712">
        <ele>1368.9</ele>
        <time>2014-05-17T11:10:34Z</time>
      </trkpt>
      <trkpt lat="42.80077" lon="0.39712">
        <ele>1369</ele>
        <time>2014-05-17T11:10:35Z</time>
      </trkpt>
      <trkpt lat="42.80064" lon="0.39712">
        <ele>1369</ele>
        <time>2014-05-17T11:10:36Z</time>
      </trkpt>
      <trkpt lat="42.80055" lon="0.39712">
        <ele>1369</ele>
        <time>2014-05-17T11:10:37Z</time>
      </trkpt>
      <trkpt lat="42.80045" lon="0.39716">
        <ele>1368.5</ele>
        <time>2014-05-17T11:10:38Z</time>
      </trkpt>
      <trkpt lat="42.80028" lon="0.39726">
        <ele>1368.2</ele>
        <time>2014-05-17T11:10:40Z</time>
      </trkpt>
      <trkpt lat="42.80037" lon="0.39741">
        <ele>1367.2</ele>
        <time>2014-05-17T11:10:43Z</time>
      </trkpt>
      <trkpt lat="42.80052" lon="0.39747">
        <ele>1366.1</ele>
        <time>2014-05-17T11:10:47Z</time>
      </trkpt>
      <trkpt lat="42.80065" lon="0.39745">
        <ele>1366</ele>
        <time>2014-05-17T11:10:53Z</time>
      </trkpt>
      <trkpt lat="42.80079" lon="0.39741">
        <ele>1366</ele>
        <time>2014-05-17T11:10:57Z</time>
      </trkpt>
      <trkpt lat="42.80087" lon="0.39735">
        <ele>1366</ele>
        <time>2014-05-17T11:11:00Z</time>
      </trkpt>
      <trkpt lat="42.801" lon="0.39726">
        <ele>1366.5</ele>
        <time>2014-05-17T11:11:04Z</time>
      </trkpt>
      <trkpt lat="42.80114" lon="0.39718">
        <ele>1367.8</ele>
        <time>2014-05-17T11:11:06Z</time>
      </trkpt>
      <trkpt lat="42.80127" lon="0.39711">
        <ele>1368</ele>
        <time>2014-05-17T11:11:09Z</time>
      </trkpt>
      <trkpt lat="42.80142" lon="0.39709">
        <ele>1368</ele>
        <time>2014-05-17T11:11:12Z</time>
      </trkpt>
      <trkpt lat="42.80159" lon="0.3971">
        <ele>1368</ele>
        <time>2014-05-17T11:11:15Z</time>
      </trkpt>
      <trkpt lat="42.80174" lon="0.39707">
        <ele>1368</ele>
        <time>2014-05-17T11:11:20Z</time>
      </trkpt>
      <trkpt lat="42.80183" lon="0.39693">
        <ele>1367.1</ele>
        <time>2014-05-17T11:11:23Z</time>
      </trkpt>
      <trkpt lat="42.80206" lon="0.3968">
        <ele>1367</ele>
        <time>2014-05-17T11:11:27Z</time>
      </trkpt>
      <trkpt lat="42.80224" lon="0.39677">
        <ele>1367</ele>
        <time>2014-05-17T11:11:31Z</time>
      </trkpt>
      <trkpt lat="42.80235" lon="0.39677">
        <ele>1367</ele>
        <time>2014-05-17T11:11:33Z</time>
      </trkpt>
      <trkpt lat="42.80239" lon="0.39662">
        <ele>1366.5</ele>
        <time>2014-05-17T11:11:36Z</time>
      </trkpt>
      <trkpt lat="42.80247" lon="0.39643">
        <ele>1366.1</ele>
        <time>2014-05-17T11:11:40Z</time>
      </trkpt>
      <trkpt lat="42.80251" lon="0.39623">
        <ele>1366.9</ele>
        <time>2014-05-17T11:11:44Z</time>
      </trkpt>
      <trkpt lat="42.80266" lon="0.39624">
        <ele>1367</ele>
        <time>2014-05-17T11:11:50Z</time>
      </trkpt>
      <trkpt lat="42.8028" lon="0.39623">
        <ele>1369.2</ele>
        <time>2014-05-17T11:11:54Z</time>
      </trkpt>
      <trkpt lat="42.80291" lon="0.39643">
        <ele>1370.4</ele>
        <time>2014-05-17T11:11:58Z</time>
      </trkpt>
      <trkpt lat="42.80277" lon="0.39665">
        <ele>1372.2</ele>
        <time>2014-05-17T11:12:01Z</time>
      </trkpt>
      <trkpt lat="42.80268" lon="0.39673">
        <ele>1372.6</ele>
        <time>2014-05-17T11:12:02Z</time>
      </trkpt>
      <trkpt lat="42.8025" lon="0.3969">
        <ele>1373.6</ele>
        <time>2014-05-17T11:12:04Z</time>
      </trkpt>
      <trkpt lat="42.8024" lon="0.39695">
        <ele>1374.7</ele>
        <time>2014-05-17T11:12:05Z</time>
      </trkpt>
      <trkpt lat="42.80231" lon="0.39702">
        <ele>1375.3</ele>
        <time>2014-05-17T11:12:06Z</time>
      </trkpt>
      <trkpt lat="42.80216" lon="0.39715">
        <ele>1375.7</ele>
        <time>2014-05-17T11:12:08Z</time>
      </trkpt>
      <trkpt lat="42.80205" lon="0.39728">
        <ele>1376.3</ele>
        <time>2014-05-17T11:12:10Z</time>
      </trkpt>
      <trkpt lat="42.80209" lon="0.39752">
        <ele>1376.9</ele>
        <time>2014-05-17T11:12:12Z</time>
      </trkpt>
      <trkpt lat="42.80226" lon="0.3975">
        <ele>1377</ele>
        <time>2014-05-17T11:12:16Z</time>
      </trkpt>
      <trkpt lat="42.80235" lon="0.39746">
        <ele>1376.5</ele>
        <time>2014-05-17T11:12:18Z</time>
      </trkpt>
      <trkpt lat="42.80249" lon="0.39739">
        <ele>1375.6</ele>
        <time>2014-05-17T11:12:21Z</time>
      </trkpt>
      <trkpt lat="42.80265" lon="0.39732">
        <ele>1372.8</ele>
        <time>2014-05-17T11:12:24Z</time>
      </trkpt>
      <trkpt lat="42.80283" lon="0.39728">
        <ele>1370</ele>
        <time>2014-05-17T11:12:26Z</time>
      </trkpt>
      <trkpt lat="42.80292" lon="0.39718">
        <ele>1369</ele>
        <time>2014-05-17T11:12:28Z</time>
      </trkpt>
      <trkpt lat="42.80304" lon="0.39706">
        <ele>1368.1</ele>
        <time>2014-05-17T11:12:31Z</time>
      </trkpt>
      <trkpt lat="42.80318" lon="0.39694">
        <ele>1367.5</ele>
        <time>2014-05-17T11:12:34Z</time>
      </trkpt>
      <trkpt lat="42.80333" lon="0.39681">
        <ele>1367.1</ele>
        <time>2014-05-17T11:12:37Z</time>
      </trkpt>
      <trkpt lat="42.80343" lon="0.39681">
        <ele>1366.5</ele>
        <time>2014-05-17T11:12:39Z</time>
      </trkpt>
      <trkpt lat="42.80343" lon="0.39702">
        <ele>1366.1</ele>
        <time>2014-05-17T11:12:43Z</time>
      </trkpt>
      <trkpt lat="42.8032" lon="0.39718">
        <ele>1366</ele>
        <time>2014-05-17T11:12:45Z</time>
      </trkpt>
      <trkpt lat="42.80309" lon="0.39723">
        <ele>1365.5</ele>
        <time>2014-05-17T11:12:46Z</time>
      </trkpt>
      <trkpt lat="42.803" lon="0.39728">
        <ele>1363.6</ele>
        <time>2014-05-17T11:12:47Z</time>
      </trkpt>
      <trkpt lat="42.80289" lon="0.39734">
        <ele>1363.6</ele>
        <time>2014-05-17T11:12:48Z</time>
      </trkpt>
      <trkpt lat="42.8028" lon="0.3973">
        <ele>1361.9</ele>
        <time>2014-05-17T11:12:49Z</time>
      </trkpt>
      <trkpt lat="42.80257" lon="0.39733">
        <ele>1360</ele>
        <time>2014-05-17T11:12:51Z</time>
      </trkpt>
      <trkpt lat="42.80245" lon="0.39736">
        <ele>1357</ele>
        <time>2014-05-17T11:12:52Z</time>
      </trkpt>
      <trkpt lat="42.80233" lon="0.39739">
        <ele>1355.5</ele>
        <time>2014-05-17T11:12:53Z</time>
      </trkpt>
      <trkpt lat="42.80222" lon="0.3974">
        <ele>1355.5</ele>
        <time>2014-05-17T11:12:54Z</time>
      </trkpt>
      <trkpt lat="42.80202" lon="0.3974">
        <ele>1344.4</ele>
        <time>2014-05-17T11:12:56Z</time>
      </trkpt>
      <trkpt lat="42.80191" lon="0.39743">
        <ele>1344.4</ele>
        <time>2014-05-17T11:12:57Z</time>
      </trkpt>
      <trkpt lat="42.80181" lon="0.39745">
        <ele>1344.4</ele>
        <time>2014-05-17T11:12:58Z</time>
      </trkpt>
      <trkpt lat="42.80175" lon="0.39754">
        <ele>1344.4</ele>
        <time>2014-05-17T11:12:59Z</time>
      </trkpt>
      <trkpt lat="42.80168" lon="0.39761">
        <ele>1344.4</ele>
        <time>2014-05-17T11:13:00Z</time>
      </trkpt>
      <trkpt lat="42.80165" lon="0.39786">
        <ele>1338.9</ele>
        <time>2014-05-17T11:13:02Z</time>
      </trkpt>
      <trkpt lat="42.80173" lon="0.39795">
        <ele>1330.5</ele>
        <time>2014-05-17T11:13:07Z</time>
      </trkpt>
      <trkpt lat="42.80179" lon="0.39785">
        <ele>1325.9</ele>
        <time>2014-05-17T11:13:10Z</time>
      </trkpt>
      <trkpt lat="42.80186" lon="0.39771">
        <ele>1324.5</ele>
        <time>2014-05-17T11:13:14Z</time>
      </trkpt>
      <trkpt lat="42.80197" lon="0.39761">
        <ele>1324.5</ele>
        <time>2014-05-17T11:13:15Z</time>
      </trkpt>
      <trkpt lat="42.80212" lon="0.39749">
        <ele>1323.3</ele>
        <time>2014-05-17T11:13:18Z</time>
      </trkpt>
      <trkpt lat="42.80224" lon="0.39753">
        <ele>1323.1</ele>
        <time>2014-05-17T11:13:20Z</time>
      </trkpt>
      <trkpt lat="42.80238" lon="0.39757">
        <ele>1322.3</ele>
        <time>2014-05-17T11:13:23Z</time>
      </trkpt>
      <trkpt lat="42.80253" lon="0.39765">
        <ele>1321.1</ele>
        <time>2014-05-17T11:13:27Z</time>
      </trkpt>
      <trkpt lat="42.80267" lon="0.39769">
        <ele>1319.1</ele>
        <time>2014-05-17T11:13:32Z</time>
      </trkpt>
      <trkpt lat="42.80277" lon="0.39772">
        <ele>1317.6</ele>
        <time>2014-05-17T11:13:34Z</time>
      </trkpt>
      <trkpt lat="42.80284" lon="0.39774">
        <ele>1312.8</ele>
        <time>2014-05-17T11:13:36Z</time>
      </trkpt>
      <trkpt lat="42.8029" lon="0.39778">
        <ele>1312.8</ele>
        <time>2014-05-17T11:13:38Z</time>
      </trkpt>
      <trkpt lat="42.80303" lon="0.39784">
        <ele>1310.7</ele>
        <time>2014-05-17T11:13:43Z</time>
      </trkpt>
      <trkpt lat="42.80318" lon="0.39785">
        <ele>1310</ele>
        <time>2014-05-17T11:13:48Z</time>
      </trkpt>
      <trkpt lat="42.80327" lon="0.39802">
        <ele>1309.1</ele>
        <time>2014-05-17T11:13:52Z</time>
      </trkpt>
      <trkpt lat="42.80316" lon="0.39818">
        <ele>1309</ele>
        <time>2014-05-17T11:13:54Z</time>
      </trkpt>
      <trkpt lat="42.80297" lon="0.3983">
        <ele>1309</ele>
        <time>2014-05-17T11:13:56Z</time>
      </trkpt>
      <trkpt lat="42.80281" lon="0.39841">
        <ele>1309</ele>
        <time>2014-05-17T11:13:58Z</time>
      </trkpt>
      <trkpt lat="42.80267" lon="0.39849">
        <ele>1309.5</ele>
        <time>2014-05-17T11:14:00Z</time>
      </trkpt>
      <trkpt lat="42.80259" lon="0.39855">
        <ele>1310.3</ele>
        <time>2014-05-17T11:14:01Z</time>
      </trkpt>
      <trkpt lat="42.8025" lon="0.39862">
        <ele>1313.6</ele>
        <time>2014-05-17T11:14:02Z</time>
      </trkpt>
      <trkpt lat="42.80242" lon="0.39867">
        <ele>1313.6</ele>
        <time>2014-05-17T11:14:03Z</time>
      </trkpt>
      <trkpt lat="42.80234" lon="0.39875">
        <ele>1314.8</ele>
        <time>2014-05-17T11:14:04Z</time>
      </trkpt>
      <trkpt lat="42.80217" lon="0.39894">
        <ele>1315.4</ele>
        <time>2014-05-17T11:14:06Z</time>
      </trkpt>
      <trkpt lat="42.80203" lon="0.39904">
        <ele>1315.8</ele>
        <time>2014-05-17T11:14:07Z</time>
      </trkpt>
      <trkpt lat="42.80226" lon="0.39909">
        <ele>1316.5</ele>
        <time>2014-05-17T11:14:09Z</time>
      </trkpt>
      <trkpt lat="42.80239" lon="0.3991">
        <ele>1316.9</ele>
        <time>2014-05-17T11:14:12Z</time>
      </trkpt>
      <trkpt lat="42.8025" lon="0.39904">
        <ele>1317</ele>
        <time>2014-05-17T11:14:14Z</time>
      </trkpt>
      <trkpt lat="42.80266" lon="0.39892">
        <ele>1317</ele>
        <time>2014-05-17T11:14:16Z</time>
      </trkpt>
      <trkpt lat="42.80275" lon="0.39878">
        <ele>1317</ele>
        <time>2014-05-17T11:14:21Z</time>
      </trkpt>
      <trkpt lat="42.80285" lon="0.39869">
        <ele>1317</ele>
        <time>2014-05-17T11:14:25Z</time>
      </trkpt>
      <trkpt lat="42.80297" lon="0.39876">
        <ele>1317</ele>
        <time>2014-05-17T11:14:29Z</time>
      </trkpt>
      <trkpt lat="42.80306" lon="0.39893">
        <ele>1317</ele>
        <time>2014-05-17T11:14:33Z</time>
      </trkpt>
      <trkpt lat="42.80315" lon="0.39909">
        <ele>1317</ele>
        <time>2014-05-17T11:14:37Z</time>
      </trkpt>
      <trkpt lat="42.80328" lon="0.39919">
        <ele>1313.6</ele>
        <time>2014-05-17T11:14:41Z</time>
      </trkpt>
      <trkpt lat="42.80346" lon="0.39933">
        <ele>1308.9</ele>
        <time>2014-05-17T11:14:46Z</time>
      </trkpt>
      <trkpt lat="42.80359" lon="0.39945">
        <ele>1308.1</ele>
        <time>2014-05-17T11:14:49Z</time>
      </trkpt>
      <trkpt lat="42.80362" lon="0.39965">
        <ele>1308</ele>
        <time>2014-05-17T11:14:54Z</time>
      </trkpt>
      <trkpt lat="42.80367" lon="0.39986">
        <ele>1308</ele>
        <time>2014-05-17T11:14:58Z</time>
      </trkpt>
      <trkpt lat="42.80376" lon="0.40002">
        <ele>1308</ele>
        <time>2014-05-17T11:15:01Z</time>
      </trkpt>
      <trkpt lat="42.80388" lon="0.40012">
        <ele>1307.1</ele>
        <time>2014-05-17T11:15:04Z</time>
      </trkpt>
      <trkpt lat="42.80398" lon="0.40025">
        <ele>1305</ele>
        <time>2014-05-17T11:15:06Z</time>
      </trkpt>
      <trkpt lat="42.80411" lon="0.4004">
        <ele>1302.5</ele>
        <time>2014-05-17T11:15:10Z</time>
      </trkpt>
      <trkpt lat="42.80427" lon="0.40054">
        <ele>1300.3</ele>
        <time>2014-05-17T11:15:13Z</time>
      </trkpt>
      <trkpt lat="42.80443" lon="0.40062">
        <ele>1299.3</ele>
        <time>2014-05-17T11:15:16Z</time>
      </trkpt>
      <trkpt lat="42.80454" lon="0.40073">
        <ele>1299</ele>
        <time>2014-05-17T11:15:19Z</time>
      </trkpt>
      <trkpt lat="42.80464" lon="0.40087">
        <ele>1295</ele>
        <time>2014-05-17T11:15:23Z</time>
      </trkpt>
      <trkpt lat="42.80468" lon="0.40108">
        <ele>1292.3</ele>
        <time>2014-05-17T11:15:26Z</time>
      </trkpt>
      <trkpt lat="42.80473" lon="0.40128">
        <ele>1291.5</ele>
        <time>2014-05-17T11:15:30Z</time>
      </trkpt>
      <trkpt lat="42.80488" lon="0.40133">
        <ele>1291</ele>
        <time>2014-05-17T11:15:34Z</time>
      </trkpt>
      <trkpt lat="42.80498" lon="0.40149">
        <ele>1283.9</ele>
        <time>2014-05-17T11:15:41Z</time>
      </trkpt>
      <trkpt lat="42.80498" lon="0.40175">
        <ele>1279.4</ele>
        <time>2014-05-17T11:15:45Z</time>
      </trkpt>
      <trkpt lat="42.80499" lon="0.40195">
        <ele>1279.1</ele>
        <time>2014-05-17T11:15:48Z</time>
      </trkpt>
      <trkpt lat="42.80495" lon="0.40217">
        <ele>1269.8</ele>
        <time>2014-05-17T11:15:52Z</time>
      </trkpt>
      <trkpt lat="42.80503" lon="0.40233">
        <ele>1261.4</ele>
        <time>2014-05-17T11:15:57Z</time>
      </trkpt>
      <trkpt lat="42.8051" lon="0.40244">
        <ele>1257.5</ele>
        <time>2014-05-17T11:16:02Z</time>
      </trkpt>
      <trkpt lat="42.80513" lon="0.40256">
        <ele>1257</ele>
        <time>2014-05-17T11:16:08Z</time>
      </trkpt>
      <trkpt lat="42.80482" lon="0.40276">
        <ele>1257</ele>
        <time>2014-05-17T11:16:10Z</time>
      </trkpt>
      <trkpt lat="42.80473" lon="0.40282">
        <ele>1255.5</ele>
        <time>2014-05-17T11:16:11Z</time>
      </trkpt>
      <trkpt lat="42.80462" lon="0.40289">
        <ele>1254.8</ele>
        <time>2014-05-17T11:16:12Z</time>
      </trkpt>
      <trkpt lat="42.80453" lon="0.40295">
        <ele>1254.4</ele>
        <time>2014-05-17T11:16:13Z</time>
      </trkpt>
      <trkpt lat="42.80444" lon="0.40301">
        <ele>1254.2</ele>
        <time>2014-05-17T11:16:14Z</time>
      </trkpt>
      <trkpt lat="42.80433" lon="0.40301">
        <ele>1254.1</ele>
        <time>2014-05-17T11:16:15Z</time>
      </trkpt>
      <trkpt lat="42.80417" lon="0.40305">
        <ele>1253.5</ele>
        <time>2014-05-17T11:16:16Z</time>
      </trkpt>
      <trkpt lat="42.80406" lon="0.40305">
        <ele>1253.5</ele>
        <time>2014-05-17T11:16:17Z</time>
      </trkpt>
      <trkpt lat="42.80397" lon="0.40299">
        <ele>1253.1</ele>
        <time>2014-05-17T11:16:18Z</time>
      </trkpt>
      <trkpt lat="42.80386" lon="0.40299">
        <ele>1253.1</ele>
        <time>2014-05-17T11:16:19Z</time>
      </trkpt>
      <trkpt lat="42.80374" lon="0.40297">
        <ele>1250.5</ele>
        <time>2014-05-17T11:16:20Z</time>
      </trkpt>
      <trkpt lat="42.80362" lon="0.40297">
        <ele>1247.8</ele>
        <time>2014-05-17T11:16:21Z</time>
      </trkpt>
      <trkpt lat="42.80347" lon="0.40299">
        <ele>1246.4</ele>
        <time>2014-05-17T11:16:22Z</time>
      </trkpt>
      <trkpt lat="42.80336" lon="0.40309">
        <ele>1245.2</ele>
        <time>2014-05-17T11:16:23Z</time>
      </trkpt>
      <trkpt lat="42.80316" lon="0.40315">
        <ele>1244.6</ele>
        <time>2014-05-17T11:16:25Z</time>
      </trkpt>
      <trkpt lat="42.80306" lon="0.40316">
        <ele>1242.6</ele>
        <time>2014-05-17T11:16:26Z</time>
      </trkpt>
      <trkpt lat="42.80292" lon="0.40316">
        <ele>1242.6</ele>
        <time>2014-05-17T11:16:27Z</time>
      </trkpt>
      <trkpt lat="42.80277" lon="0.4032">
        <ele>1239.2</ele>
        <time>2014-05-17T11:16:28Z</time>
      </trkpt>
      <trkpt lat="42.80266" lon="0.40322">
        <ele>1238.6</ele>
        <time>2014-05-17T11:16:29Z</time>
      </trkpt>
      <trkpt lat="42.80252" lon="0.40325">
        <ele>1238.3</ele>
        <time>2014-05-17T11:16:30Z</time>
      </trkpt>
      <trkpt lat="42.80238" lon="0.40325">
        <ele>1238.3</ele>
        <time>2014-05-17T11:16:31Z</time>
      </trkpt>
      <trkpt lat="42.80225" lon="0.40327">
        <ele>1237.3</ele>
        <time>2014-05-17T11:16:32Z</time>
      </trkpt>
      <trkpt lat="42.80211" lon="0.40333">
        <ele>1237.3</ele>
        <time>2014-05-17T11:16:33Z</time>
      </trkpt>
      <trkpt lat="42.80198" lon="0.40335">
        <ele>1236.3</ele>
        <time>2014-05-17T11:16:34Z</time>
      </trkpt>
      <trkpt lat="42.80182" lon="0.40337">
        <ele>1236.3</ele>
        <time>2014-05-17T11:16:35Z</time>
      </trkpt>
      <trkpt lat="42.80163" lon="0.40335">
        <ele>1233</ele>
        <time>2014-05-17T11:16:37Z</time>
      </trkpt>
      <trkpt lat="42.80143" lon="0.40336">
        <ele>1233</ele>
        <time>2014-05-17T11:16:39Z</time>
      </trkpt>
      <trkpt lat="42.80123" lon="0.40337">
        <ele>1233</ele>
        <time>2014-05-17T11:16:41Z</time>
      </trkpt>
      <trkpt lat="42.80112" lon="0.40338">
        <ele>1233</ele>
        <time>2014-05-17T11:16:42Z</time>
      </trkpt>
      <trkpt lat="42.80098" lon="0.4034">
        <ele>1233</ele>
        <time>2014-05-17T11:16:43Z</time>
      </trkpt>
      <trkpt lat="42.80085" lon="0.40341">
        <ele>1233</ele>
        <time>2014-05-17T11:16:44Z</time>
      </trkpt>
      <trkpt lat="42.80073" lon="0.40347">
        <ele>1233</ele>
        <time>2014-05-17T11:16:45Z</time>
      </trkpt>
      <trkpt lat="42.80061" lon="0.40354">
        <ele>1233</ele>
        <time>2014-05-17T11:16:46Z</time>
      </trkpt>
      <trkpt lat="42.80041" lon="0.40365">
        <ele>1232.1</ele>
        <time>2014-05-17T11:16:48Z</time>
      </trkpt>
      <trkpt lat="42.8004" lon="0.40385">
        <ele>1232.1</ele>
        <time>2014-05-17T11:16:49Z</time>
      </trkpt>
      <trkpt lat="42.8003" lon="0.40405">
        <ele>1231.5</ele>
        <time>2014-05-17T11:16:50Z</time>
      </trkpt>
      <trkpt lat="42.80021" lon="0.40425">
        <ele>1231.1</ele>
        <time>2014-05-17T11:16:52Z</time>
      </trkpt>
      <trkpt lat="42.80012" lon="0.40446">
        <ele>1231</ele>
        <time>2014-05-17T11:16:54Z</time>
      </trkpt>
      <trkpt lat="42.8" lon="0.4046">
        <ele>1231</ele>
        <time>2014-05-17T11:16:56Z</time>
      </trkpt>
      <trkpt lat="42.7999" lon="0.40486">
        <ele>1230.3</ele>
        <time>2014-05-17T11:16:58Z</time>
      </trkpt>
      <trkpt lat="42.7998" lon="0.4051">
        <ele>1230.1</ele>
        <time>2014-05-17T11:17:00Z</time>
      </trkpt>
      <trkpt lat="42.79972" lon="0.40529">
        <ele>1230</ele>
        <time>2014-05-17T11:17:02Z</time>
      </trkpt>
      <trkpt lat="42.79966" lon="0.40548">
        <ele>1230</ele>
        <time>2014-05-17T11:17:04Z</time>
      </trkpt>
      <trkpt lat="42.7996" lon="0.40565">
        <ele>1230</ele>
        <time>2014-05-17T11:17:06Z</time>
      </trkpt>
      <trkpt lat="42.79953" lon="0.40582">
        <ele>1230</ele>
        <time>2014-05-17T11:17:08Z</time>
      </trkpt>
      <trkpt lat="42.79949" lon="0.40607">
        <ele>1229.8</ele>
        <time>2014-05-17T11:17:11Z</time>
      </trkpt>
      <trkpt lat="42.79956" lon="0.40623">
        <ele>1228.2</ele>
        <time>2014-05-17T11:17:14Z</time>
      </trkpt>
      <trkpt lat="42.79956" lon="0.40643">
        <ele>1222.3</ele>
        <time>2014-05-17T11:17:18Z</time>
      </trkpt>
      <trkpt lat="42.79969" lon="0.40656">
        <ele>1217.8</ele>
        <time>2014-05-17T11:17:22Z</time>
      </trkpt>
      <trkpt lat="42.79978" lon="0.40664">
        <ele>1213.2</ele>
        <time>2014-05-17T11:17:26Z</time>
      </trkpt>
      <trkpt lat="42.79989" lon="0.40669">
        <ele>1213.1</ele>
        <time>2014-05-17T11:17:29Z</time>
      </trkpt>
      <trkpt lat="42.8" lon="0.40667">
        <ele>1212.1</ele>
        <time>2014-05-17T11:17:32Z</time>
      </trkpt>
      <trkpt lat="42.8001" lon="0.40665">
        <ele>1210.8</ele>
        <time>2014-05-17T11:17:35Z</time>
      </trkpt>
      <trkpt lat="42.80015" lon="0.40642">
        <ele>1206.2</ele>
        <time>2014-05-17T11:17:38Z</time>
      </trkpt>
      <trkpt lat="42.80006" lon="0.40614">
        <ele>1202.1</ele>
        <time>2014-05-17T11:17:41Z</time>
      </trkpt>
      <trkpt lat="42.79999" lon="0.40594">
        <ele>1197</ele>
        <time>2014-05-17T11:17:43Z</time>
      </trkpt>
      <trkpt lat="42.79994" lon="0.40571">
        <ele>1192.8</ele>
        <time>2014-05-17T11:17:46Z</time>
      </trkpt>
      <trkpt lat="42.79995" lon="0.40546">
        <ele>1188.2</ele>
        <time>2014-05-17T11:17:49Z</time>
      </trkpt>
      <trkpt lat="42.79996" lon="0.4054">
        <ele>1179.3</ele>
        <time>2014-05-17T11:17:50Z</time>
      </trkpt>
      <trkpt lat="42.79999" lon="0.40533">
        <ele>1179.3</ele>
        <time>2014-05-17T11:17:52Z</time>
      </trkpt>
      <trkpt lat="42.80005" lon="0.4053">
        <ele>1179.3</ele>
        <time>2014-05-17T11:17:54Z</time>
      </trkpt>
      <trkpt lat="42.80021" lon="0.40533">
        <ele>1164.6</ele>
        <time>2014-05-17T11:18:01Z</time>
      </trkpt>
      <trkpt lat="42.80027" lon="0.40532">
        <ele>1151.9</ele>
        <time>2014-05-17T11:18:03Z</time>
      </trkpt>
      <trkpt lat="42.80031" lon="0.40527">
        <ele>1151.9</ele>
        <time>2014-05-17T11:18:07Z</time>
      </trkpt>
      <trkpt lat="42.80035" lon="0.40521">
        <ele>1144</ele>
        <time>2014-05-17T11:18:10Z</time>
      </trkpt>
      <trkpt lat="42.80042" lon="0.40524">
        <ele>1143.1</ele>
        <time>2014-05-17T11:18:13Z</time>
      </trkpt>
      <trkpt lat="42.80047" lon="0.40528">
        <ele>1143.1</ele>
        <time>2014-05-17T11:18:15Z</time>
      </trkpt>
      <trkpt lat="42.80056" lon="0.40534">
        <ele>1143</ele>
        <time>2014-05-17T11:18:18Z</time>
      </trkpt>
      <trkpt lat="42.80067" lon="0.40534">
        <ele>1140.4</ele>
        <time>2014-05-17T11:18:22Z</time>
      </trkpt>
      <trkpt lat="42.80079" lon="0.40536">
        <ele>1134.5</ele>
        <time>2014-05-17T11:18:27Z</time>
      </trkpt>
      <trkpt lat="42.80084" lon="0.40537">
        <ele>1130.9</ele>
        <time>2014-05-17T11:18:29Z</time>
      </trkpt>
      <trkpt lat="42.80088" lon="0.40539">
        <ele>1130.9</ele>
        <time>2014-05-17T11:18:31Z</time>
      </trkpt>
      <trkpt lat="42.80095" lon="0.40536">
        <ele>1130.9</ele>
        <time>2014-05-17T11:18:32Z</time>
      </trkpt>
      <trkpt lat="42.80109" lon="0.40544">
        <ele>1124.2</ele>
        <time>2014-05-17T11:18:38Z</time>
      </trkpt>
      <trkpt lat="42.80105" lon="0.40565">
        <ele>1116.5</ele>
        <time>2014-05-17T11:18:41Z</time>
      </trkpt>
      <trkpt lat="42.80105" lon="0.40587">
        <ele>1114.4</ele>
        <time>2014-05-17T11:18:44Z</time>
      </trkpt>
      <trkpt lat="42.80111" lon="0.40598">
        <ele>1108.9</ele>
        <time>2014-05-17T11:18:48Z</time>
      </trkpt>
      <trkpt lat="42.8012" lon="0.40584">
        <ele>1106.5</ele>
        <time>2014-05-17T11:18:51Z</time>
      </trkpt>
      <trkpt lat="42.80121" lon="0.40564">
        <ele>1101.2</ele>
        <time>2014-05-17T11:18:53Z</time>
      </trkpt>
      <trkpt lat="42.8012" lon="0.40542">
        <ele>1093.4</ele>
        <time>2014-05-17T11:18:55Z</time>
      </trkpt>
      <trkpt lat="42.8012" lon="0.40521">
        <ele>1092.4</ele>
        <time>2014-05-17T11:18:57Z</time>
      </trkpt>
      <trkpt lat="42.80126" lon="0.40526">
        <ele>1085.2</ele>
        <time>2014-05-17T11:19:03Z</time>
      </trkpt>
      <trkpt lat="42.80126" lon="0.40532">
        <ele>1085.2</ele>
        <time>2014-05-17T11:19:05Z</time>
      </trkpt>
      <trkpt lat="42.80126" lon="0.40539">
        <ele>1080.3</ele>
        <time>2014-05-17T11:19:08Z</time>
      </trkpt>
      <trkpt lat="42.80133" lon="0.4054">
        <ele>1075.3</ele>
        <time>2014-05-17T11:19:12Z</time>
      </trkpt>
      <trkpt lat="42.80138" lon="0.40539">
        <ele>1075.3</ele>
        <time>2014-05-17T11:19:14Z</time>
      </trkpt>
      <trkpt lat="42.80146" lon="0.40532">
        <ele>1074.2</ele>
        <time>2014-05-17T11:19:18Z</time>
      </trkpt>
      <trkpt lat="42.8015" lon="0.40521">
        <ele>1070.2</ele>
        <time>2014-05-17T11:19:22Z</time>
      </trkpt>
      <trkpt lat="42.80154" lon="0.40516">
        <ele>1062.8</ele>
        <time>2014-05-17T11:19:25Z</time>
      </trkpt>
      <trkpt lat="42.80158" lon="0.40522">
        <ele>1055.2</ele>
        <time>2014-05-17T11:19:28Z</time>
      </trkpt>
      <trkpt lat="42.8016" lon="0.4053">
        <ele>1048.4</ele>
        <time>2014-05-17T11:19:31Z</time>
      </trkpt>
      <trkpt lat="42.80164" lon="0.40533">
        <ele>1048.4</ele>
        <time>2014-05-17T11:19:34Z</time>
      </trkpt>
      <trkpt lat="42.80178" lon="0.40537">
        <ele>1034.6</ele>
        <time>2014-05-17T11:19:42Z</time>
      </trkpt>
      <trkpt lat="42.80189" lon="0.40538">
        <ele>1024.7</ele>
        <time>2014-05-17T11:19:47Z</time>
      </trkpt>
      <trkpt lat="42.80193" lon="0.40541">
        <ele>1020.2</ele>
        <time>2014-05-17T11:19:49Z</time>
      </trkpt>
      <trkpt lat="42.80198" lon="0.40546">
        <ele>1020.2</ele>
        <time>2014-05-17T11:19:51Z</time>
      </trkpt>
      <trkpt lat="42.802" lon="0.40557">
        <ele>1014.1</ele>
        <time>2014-05-17T11:19:54Z</time>
      </trkpt>
      <trkpt lat="42.80202" lon="0.40566">
        <ele>1009</ele>
        <time>2014-05-17T11:19:56Z</time>
      </trkpt>
      <trkpt lat="42.80205" lon="0.40573">
        <ele>1009</ele>
        <time>2014-05-17T11:19:58Z</time>
      </trkpt>
      <trkpt lat="42.80208" lon="0.40577">
        <ele>1009</ele>
        <time>2014-05-17T11:20:00Z</time>
      </trkpt>
      <trkpt lat="42.80212" lon="0.40582">
        <ele>993.9</ele>
        <time>2014-05-17T11:20:02Z</time>
      </trkpt>
      <trkpt lat="42.80217" lon="0.40585">
        <ele>993.9</ele>
        <time>2014-05-17T11:20:05Z</time>
      </trkpt>
      <trkpt lat="42.80227" lon="0.40588">
        <ele>980.3</ele>
        <time>2014-05-17T11:20:11Z</time>
      </trkpt>
      <trkpt lat="42.80222" lon="0.4059">
        <ele>964.3</ele>
        <time>2014-05-17T11:20:27Z</time>
      </trkpt>
      <trkpt lat="42.80213" lon="0.40597">
        <ele>958.4</ele>
        <time>2014-05-17T11:20:44Z</time>
      </trkpt>
      <trkpt lat="42.80209" lon="0.40592">
        <ele>955.5</ele>
        <time>2014-05-17T11:20:53Z</time>
      </trkpt>
      <trkpt lat="42.80212" lon="0.40584">
        <ele>954</ele>
        <time>2014-05-17T11:21:03Z</time>
      </trkpt>
      <trkpt lat="42.80212" lon="0.40591">
        <ele>949</ele>
        <time>2014-05-17T11:21:20Z</time>
      </trkpt>
      <trkpt lat="42.80207" lon="0.406">
        <ele>949</ele>
        <time>2014-05-17T11:21:28Z</time>
      </trkpt>
      <trkpt lat="42.80199" lon="0.40616">
        <ele>949</ele>
        <time>2014-05-17T11:21:40Z</time>
      </trkpt>
      <trkpt lat="42.80196" lon="0.40621">
        <ele>949</ele>
        <time>2014-05-17T11:21:45Z</time>
      </trkpt>
      <trkpt lat="42.80187" lon="0.40636">
        <ele>949</ele>
        <time>2014-05-17T11:21:59Z</time>
      </trkpt>
      <trkpt lat="42.80183" lon="0.4064">
        <ele>950</ele>
        <time>2014-05-17T11:22:06Z</time>
      </trkpt>
      <trkpt lat="42.80184" lon="0.40652">
        <ele>951</ele>
        <time>2014-05-17T11:22:31Z</time>
      </trkpt>
      <trkpt lat="42.80184" lon="0.40652">
        <ele>950.7</ele>
        <time>2014-05-17T11:22:31Z</time>
      </trkpt>
      <trkpt lat="42.80184" lon="0.40652">
        <ele>950.7</ele>
        <time>2014-05-17T11:22:32Z</time>
      </trkpt>
    </trkseg>
  </trk>
</gpx>